Time;durP1;ratioP1;P1;durP2;ratioP2;P2;SDS_P1;SDS_P2;PMS_P1;PMS_P2;Temp;Humidity;BMP_temperature;BMP_pressure;BME280_temperature;BME280_humidity;BME280_pressure;Samples;Min_cycle;Max_cycle;Signal;HPM_P1;HPM_P2
2023/09/28 00:01:36;;;;;;;7.77;7.17;;;16.30;99.90;;;;;;4991378;28;20208;-67
2023/09/28 00:04:06;;;;;;;8.63;7.83;;;16.30;99.90;;;;;;4974494;28;20489;-75
2023/09/28 00:06:31;;;;;;;9.10;7.17;;;16.30;99.90;;;;;;4990120;28;20431;-67
2023/09/28 00:08:57;;;;;;;7.87;7.27;;;16.30;99.90;;;;;;4992824;28;20766;-67
2023/09/28 00:11:24;;;;;;;8.20;7.50;;;16.30;99.90;;;;;;4991425;28;20197;-68
2023/09/28 00:13:50;;;;;;;7.43;6.77;;;16.40;99.90;;;;;;4992198;28;20431;-67
2023/09/28 00:16:16;;;;;;;7.10;6.40;;;16.40;99.90;;;;;;4973362;28;20465;-68
2023/09/28 00:18:41;;;;;;;9.77;7.40;;;16.40;99.90;;;;;;4992069;28;20189;-67
2023/09/28 00:21:07;;;;;;;8.20;7.60;;;16.40;99.90;;;;;;4991353;28;20284;-68
2023/09/28 00:23:33;;;;;;;7.33;6.63;;;16.40;99.90;;;;;;4975659;28;20200;-68
2023/09/28 00:25:59;;;;;;;7.43;6.00;;;16.40;99.90;;;;;;4974376;28;20219;-69
2023/09/28 00:28:24;;;;;;;7.10;6.57;;;16.40;99.90;;;;;;4991043;28;20460;-70
2023/09/28 00:30:50;;;;;;;10.53;7.17;;;16.40;99.90;;;;;;4990175;28;20683;-69
2023/09/28 00:33:16;;;;;;;6.60;6.10;;;16.50;99.90;;;;;;4975068;28;20275;-67
2023/09/28 00:35:41;;;;;;;6.97;6.33;;;16.50;99.90;;;;;;4955598;28;20192;-70
2023/09/28 00:38:07;;;;;;;15.73;7.67;;;16.50;99.90;;;;;;4992840;28;20173;-69
2023/09/28 00:40:33;;;;;;;7.93;7.13;;;16.40;99.90;;;;;;4988981;28;20173;-69
2023/09/28 00:43:00;;;;;;;8.00;7.30;;;16.50;99.90;;;;;;4992236;28;20208;-69
2023/09/28 00:45:27;;;;;;;8.07;5.80;;;16.50;99.90;;;;;;4995651;28;20185;-67
2023/09/28 00:48:04;;;;;;;7.13;6.63;;;16.50;99.90;;;;;;4994450;28;20831;-68
2023/09/28 00:50:33;;;;;;;6.97;6.13;;;16.50;99.90;;;;;;4987889;28;20459;-70
2023/09/28 00:53:07;;;;;;;8.53;6.50;;;16.50;99.90;;;;;;4995430;28;20450;-68
2023/09/28 00:55:33;;;;;;;8.07;7.47;;;16.50;99.90;;;;;;4995962;28;20459;-67
2023/09/28 00:58:02;;;;;;;10.37;7.20;;;16.50;99.90;;;;;;4957974;28;20468;-69
2023/09/28 01:00:31;;;;;;;8.20;7.40;;;16.60;99.90;;;;;;4963517;28;20838;-68
2023/09/28 01:02:59;;;;;;;8.00;7.30;;;16.70;99.90;;;;;;4995044;28;20550;-69
2023/09/28 01:05:39;;;;;;;6.37;5.77;;;16.70;99.90;;;;;;4976520;28;20447;-68
2023/09/28 01:08:06;;;;;;;8.23;7.27;;;16.80;99.90;;;;;;4978445;28;20789;-69
2023/09/28 01:10:35;;;;;;;7.53;6.93;;;16.80;99.90;;;;;;4994335;28;20490;-68
2023/09/28 01:13:11;;;;;;;8.17;7.23;;;16.80;99.90;;;;;;4991791;28;20475;-72
2023/09/28 01:15:48;;;;;;;7.73;7.03;;;16.80;99.90;;;;;;4978670;28;20447;-68
2023/09/28 01:18:18;;;;;;;9.63;7.30;;;16.90;99.90;;;;;;4993793;28;20502;-69
2023/09/28 01:20:46;;;;;;;8.70;7.97;;;16.90;99.90;;;;;;4990480;28;20452;-71
2023/09/28 01:23:11;;;;;;;7.60;6.90;;;16.90;99.90;;;;;;4974151;28;20574;-68
2023/09/28 01:25:38;;;;;;;10.00;7.73;;;17.00;99.90;;;;;;4993803;28;20485;-68
2023/09/28 01:28:05;;;;;;;9.20;8.30;;;17.00;99.90;;;;;;4976231;28;20626;-69
2023/09/28 01:30:31;;;;;;;10.37;7.40;;;17.00;99.90;;;;;;4976257;28;20840;-69
2023/09/28 01:32:57;;;;;;;9.30;7.93;;;17.00;99.90;;;;;;4989279;28;20467;-67
2023/09/28 01:35:24;;;;;;;9.30;7.93;;;17.10;99.90;;;;;;4991068;28;20788;-79
2023/09/28 01:38:10;;;;;;;10.87;8.63;;;17.10;99.90;;;;;;4975588;28;20425;-68
2023/09/28 01:40:39;;;;;;;7.57;6.87;;;17.10;98.80;;;;;;4987463;28;20456;-69
2023/09/28 01:43:05;;;;;;;9.60;8.00;;;17.20;94.70;;;;;;4993495;28;21008;-71
2023/09/28 01:45:32;;;;;;;10.70;7.40;;;17.20;94.70;;;;;;4976271;28;20442;-67
2023/09/28 01:47:59;;;;;;;9.80;7.87;;;17.20;94.60;;;;;;4994408;28;20526;-68
2023/09/28 01:50:25;;;;;;;9.20;7.57;;;17.30;94.70;;;;;;4992236;28;20443;-69
2023/09/28 01:52:51;;;;;;;8.70;7.80;;;17.30;94.70;;;;;;4977944;28;20896;-68
2023/09/28 01:55:18;;;;;;;8.90;8.03;;;17.30;94.70;;;;;;4960791;28;20492;-69
2023/09/28 01:57:44;;;;;;;8.40;7.70;;;17.30;95.10;;;;;;4992951;28;20606;-73
2023/09/28 02:00:20;;;;;;;8.20;6.70;;;17.30;94.80;;;;;;4975706;28;20428;-70
2023/09/28 02:03:08;;;;;;;12.53;8.80;;;17.30;94.70;;;;;;4980700;28;20275;-70
2023/09/28 02:05:34;;;;;;;9.27;8.37;;;17.30;94.70;;;;;;4993228;28;20432;-74
2023/09/28 02:08:07;;;;;;;8.90;8.00;;;17.30;94.70;;;;;;4974563;28;20439;-67
2023/09/28 02:10:33;;;;;;;9.80;8.30;;;17.30;94.70;;;;;;4993899;28;20467;-68
2023/09/28 02:12:59;;;;;;;9.07;8.20;;;17.30;94.70;;;;;;4976354;28;20436;-73
2023/09/28 02:15:25;;;;;;;10.10;9.10;;;17.30;94.70;;;;;;4993340;28;20548;-68
2023/09/28 02:17:50;;;;;;;8.87;8.07;;;17.20;94.70;;;;;;4973102;28;20193;-68
2023/09/28 02:20:24;;;;;;;8.43;7.63;;;17.30;94.70;;;;;;4973708;28;20462;-74
2023/09/28 02:22:52;;;;;;;8.80;7.97;;;17.20;94.70;;;;;;4988889;28;20255;-67
2023/09/28 02:25:24;;;;;;;11.97;8.10;;;17.30;94.70;;;;;;4975884;28;20412;-77
2023/09/28 02:27:50;;;;;;;9.10;8.03;;;17.30;94.70;;;;;;4993964;28;20424;-68
2023/09/28 02:30:20;;;;;;;8.43;7.60;;;17.20;94.60;;;;;;4989886;28;20435;-68
2023/09/28 02:32:47;;;;;;;9.40;8.50;;;17.20;94.70;;;;;;4991609;28;20491;-68
2023/09/28 02:35:16;;;;;;;8.70;7.80;;;17.20;94.70;;;;;;4958872;28;20446;-69
2023/09/28 02:37:44;;;;;;;8.83;7.93;;;17.10;94.60;;;;;;4975874;28;20420;-70
2023/09/28 02:40:11;;;;;;;12.40;8.73;;;17.10;94.60;;;;;;4975957;28;20440;-69
2023/09/28 02:42:37;;;;;;;9.60;8.70;;;17.10;94.60;;;;;;4992110;28;20452;-67
2023/09/28 02:45:11;;;;;;;8.77;8.03;;;17.00;94.70;;;;;;4993249;28;20931;-74
2023/09/28 02:47:43;;;;;;;9.67;8.07;;;17.00;95.70;;;;;;4976581;28;20435;-68
2023/09/28 02:50:11;;;;;;;10.73;9.13;;;17.00;94.60;;;;;;4991537;28;20508;-68
2023/09/28 02:52:38;;;;;;;8.43;7.53;;;16.90;94.50;;;;;;4991410;28;20444;-67
2023/09/28 02:55:07;;;;;;;10.40;9.30;;;16.90;94.60;;;;;;4993908;28;20430;-70
2023/09/28 02:57:33;;;;;;;9.53;8.70;;;16.80;94.60;;;;;;4992751;28;20777;-75
2023/09/28 02:59:59;;;;;;;10.13;8.50;;;16.70;94.50;;;;;;4991902;28;20436;-68
2023/09/28 03:02:25;;;;;;;10.83;9.63;;;16.70;94.50;;;;;;4990089;28;20516;-70
2023/09/28 03:04:51;;;;;;;12.03;10.20;;;16.60;94.40;;;;;;4993874;28;20573;-69
2023/09/28 03:07:17;;;;;;;9.03;8.23;;;16.60;94.40;;;;;;4992374;28;20204;-67
2023/09/28 03:09:43;;;;;;;11.93;9.20;;;16.60;97.90;;;;;;4974551;28;20177;-70
2023/09/28 03:12:08;;;;;;;10.90;8.80;;;16.60;99.90;;;;;;4991329;28;20462;-71
2023/09/28 03:14:34;;;;;;;10.77;9.67;;;16.60;99.90;;;;;;4992097;28;20638;-67
2023/09/28 03:17:00;;;;;;;10.80;9.80;;;16.60;99.90;;;;;;4990776;28;20212;-67
2023/09/28 03:19:25;;;;;;;11.93;10.10;;;16.60;99.90;;;;;;4993535;28;20248;-75
2023/09/28 03:21:53;;;;;;;11.60;10.50;;;16.60;99.90;;;;;;4988141;28;20212;-70
2023/09/28 03:24:19;;;;;;;10.20;9.30;;;16.60;99.90;;;;;;4992338;28;20211;-69
2023/09/28 03:26:44;;;;;;;10.60;9.50;;;16.60;99.90;;;;;;4992614;28;20424;-70
2023/09/28 03:29:10;;;;;;;11.03;9.67;;;16.60;99.90;;;;;;4991619;28;20200;-75
2023/09/28 03:31:36;;;;;;;10.50;9.50;;;16.60;99.90;;;;;;4990185;28;20197;-72
2023/09/28 03:34:02;;;;;;;11.13;10.13;;;16.60;99.90;;;;;;4976277;28;20260;-68
2023/09/28 03:36:30;;;;;;;12.37;9.97;;;16.70;99.90;;;;;;4990653;28;20200;-68
2023/09/28 03:38:57;;;;;;;14.27;11.33;;;16.70;99.90;;;;;;4993610;28;20165;-67
2023/09/28 03:41:23;;;;;;;20.77;11.00;;;16.70;99.90;;;;;;4990360;28;20486;-67
2023/09/28 03:43:48;;;;;;;11.77;10.60;;;16.70;99.90;;;;;;4992385;28;20456;-70
2023/09/28 03:46:21;;;;;;;11.90;10.07;;;16.80;99.90;;;;;;4992316;28;20503;-69
2023/09/28 03:48:46;;;;;;;11.20;10.00;;;16.80;99.90;;;;;;4991859;28;20227;-69
2023/09/28 03:51:15;;;;;;;11.30;10.20;;;16.80;99.90;;;;;;4989548;28;20952;-69
2023/09/28 03:53:41;;;;;;;10.83;9.87;;;16.80;99.90;;;;;;4992220;28;20193;-71
2023/09/28 03:56:07;;;;;;;11.37;9.93;;;16.80;99.90;;;;;;4959510;28;20971;-68
2023/09/28 03:58:34;;;;;;;12.00;10.90;;;16.80;99.90;;;;;;4974510;28;20188;-68
2023/09/28 04:01:03;;;;;;;10.93;9.70;;;16.80;99.90;;;;;;4973196;28;20204;-67
2023/09/28 04:03:29;;;;;;;16.30;10.17;;;16.80;99.90;;;;;;4992655;28;20987;-68
2023/09/28 04:05:55;;;;;;;12.63;11.33;;;16.80;99.90;;;;;;4992156;28;20432;-68
2023/09/28 04:08:22;;;;;;;15.73;10.10;;;16.80;99.90;;;;;;4991625;28;20550;-68
2023/09/28 04:10:50;;;;;;;10.30;9.30;;;16.80;99.90;;;;;;4992133;28;20519;-67
2023/09/28 04:13:17;;;;;;;13.30;10.87;;;16.80;99.90;;;;;;4991670;28;20431;-69
2023/09/28 04:15:42;;;;;;;14.33;10.87;;;16.80;99.90;;;;;;4988802;28;20431;-70
2023/09/28 04:18:08;;;;;;;13.00;11.60;;;16.80;99.90;;;;;;4975215;28;20808;-69
2023/09/28 04:20:35;;;;;;;11.67;10.50;;;16.80;99.90;;;;;;4978596;28;20188;-68
2023/09/28 04:23:05;;;;;;;15.30;10.27;;;16.80;99.90;;;;;;4963261;28;20460;-72
2023/09/28 04:25:32;;;;;;;20.20;11.20;;;16.80;99.90;;;;;;4978813;28;20636;-68
2023/09/28 04:27:57;;;;;;;12.70;10.40;;;16.80;99.90;;;;;;4977143;28;20948;-67
2023/09/28 04:30:23;;;;;;;11.80;10.70;;;16.80;99.90;;;;;;4993005;28;20474;-68
2023/09/28 04:32:51;;;;;;;12.63;11.33;;;16.80;99.90;;;;;;4996785;28;20192;-68
2023/09/28 04:35:17;;;;;;;12.63;10.00;;;16.80;99.90;;;;;;4996047;28;20392;-74
2023/09/28 04:37:43;;;;;;;11.57;10.30;;;16.80;99.90;;;;;;4976047;28;20435;-69
2023/09/28 04:40:10;;;;;;;11.80;10.70;;;16.80;99.90;;;;;;4994614;28;20770;-70
2023/09/28 04:42:36;;;;;;;12.47;11.27;;;16.80;99.90;;;;;;4977764;28;20223;-67
2023/09/28 04:45:03;;;;;;;12.63;11.43;;;16.80;99.90;;;;;;4994121;28;20487;-68
2023/09/28 04:47:28;;;;;;;19.77;11.00;;;16.90;99.90;;;;;;4993227;28;20177;-69
2023/09/28 04:49:55;;;;;;;14.47;10.57;;;16.80;99.90;;;;;;4993601;28;20431;-68
2023/09/28 04:52:22;;;;;;;18.40;12.67;;;16.80;99.90;;;;;;4994546;28;20231;-70
2023/09/28 04:54:49;;;;;;;12.23;10.90;;;16.90;99.90;;;;;;4978163;28;20439;-69
2023/09/28 04:57:15;;;;;;;11.77;10.53;;;16.90;99.90;;;;;;4995562;28;20444;-68
2023/09/28 04:59:41;;;;;;;11.27;10.20;;;16.90;99.90;;;;;;4977021;28;20446;-69
2023/09/28 05:02:07;;;;;;;13.87;11.03;;;16.80;99.90;;;;;;4990731;28;20536;-71
2023/09/28 05:04:34;;;;;;;11.50;10.40;;;16.80;99.90;;;;;;4973443;28;20483;-70
2023/09/28 05:07:01;;;;;;;15.30;10.47;;;16.80;99.90;;;;;;4978044;28;20995;-67
2023/09/28 05:09:27;;;;;;;14.23;12.37;;;16.80;99.90;;;;;;4994825;28;20428;-67
2023/09/28 05:11:53;;;;;;;16.43;12.00;;;16.90;99.90;;;;;;4956826;28;20960;-69
2023/09/28 05:14:24;;;;;;;14.13;10.43;;;16.90;99.90;;;;;;4992730;28;20467;-67
2023/09/28 05:16:54;;;;;;;12.40;11.20;;;16.90;99.90;;;;;;4992240;28;20494;-68
2023/09/28 05:19:21;;;;;;;12.97;11.50;;;16.90;99.90;;;;;;4990331;28;20963;-68
2023/09/28 05:21:47;;;;;;;12.50;11.30;;;16.90;99.90;;;;;;4990752;28;21526;-67
2023/09/28 05:24:14;;;;;;;12.60;11.47;;;16.90;99.90;;;;;;4992449;28;20506;-68
2023/09/28 05:26:43;;;;;;;14.10;11.53;;;16.90;99.90;;;;;;4993723;28;20432;-67
2023/09/28 05:29:09;;;;;;;18.40;11.83;;;16.90;99.90;;;;;;4993038;28;20424;-69
2023/09/28 05:31:35;;;;;;;24.97;12.30;;;16.90;99.90;;;;;;4992635;28;20448;-69
2023/09/28 05:34:01;;;;;;;12.90;10.47;;;16.90;99.90;;;;;;4976195;28;20951;-67
2023/09/28 05:36:26;;;;;;;13.50;10.13;;;16.80;99.90;;;;;;4995507;28;20172;-68
2023/09/28 05:38:52;;;;;;;18.27;10.83;;;16.90;99.90;;;;;;4992183;28;20191;-67
2023/09/28 05:41:18;;;;;;;15.43;10.40;;;16.90;99.90;;;;;;4974510;28;20197;-68
2023/09/28 05:43:43;;;;;;;16.30;10.60;;;16.90;99.90;;;;;;4994448;28;20212;-68
2023/09/28 05:46:09;;;;;;;12.60;11.40;;;16.90;99.90;;;;;;4993677;28;20165;-68
2023/09/28 05:48:36;;;;;;;11.90;10.73;;;16.90;99.90;;;;;;4994336;28;20258;-66
2023/09/28 05:51:02;;;;;;;12.93;11.20;;;16.90;99.90;;;;;;4994288;28;20181;-69
2023/09/28 05:53:30;;;;;;;12.10;10.97;;;16.90;99.90;;;;;;4991237;28;20789;-70
2023/09/28 05:55:58;;;;;;;11.70;10.20;;;17.00;99.90;;;;;;4974788;28;20458;-67
2023/09/28 05:58:24;;;;;;;13.23;10.30;;;17.00;99.90;;;;;;4976560;28;20519;-69
2023/09/28 06:00:51;;;;;;;16.03;11.60;;;17.00;99.90;;;;;;4989768;28;20456;-77
2023/09/28 06:03:18;;;;;;;10.83;9.73;;;17.10;99.90;;;;;;4975647;28;20455;-68
2023/09/28 06:05:44;;;;;;;14.70;11.27;;;17.10;99.90;;;;;;4991805;28;20479;-72
2023/09/28 06:08:09;;;;;;;12.10;9.27;;;17.00;99.90;;;;;;4975026;28;20440;-67
2023/09/28 06:10:38;;;;;;;11.53;10.20;;;17.00;99.90;;;;;;4959863;28;20189;-67
2023/09/28 06:13:04;;;;;;;10.83;9.57;;;17.00;99.90;;;;;;4977452;28;20499;-70
2023/09/28 06:15:30;;;;;;;13.30;10.00;;;17.10;99.90;;;;;;4940860;28;20452;-67
2023/09/28 06:17:56;;;;;;;12.50;10.20;;;17.10;99.90;;;;;;4972899;28;20439;-68
2023/09/28 06:20:22;;;;;;;11.70;10.50;;;17.10;99.90;;;;;;4992326;28;20494;-69
2023/09/28 06:22:48;;;;;;;10.80;9.47;;;17.20;99.90;;;;;;4957950;28;20673;-68
2023/09/28 06:25:14;;;;;;;11.50;10.33;;;17.20;99.90;;;;;;4960213;28;20184;-69
2023/09/28 06:27:41;;;;;;;11.50;9.40;;;17.20;99.90;;;;;;4974575;28;20292;-68
2023/09/28 06:30:09;;;;;;;12.07;10.43;;;17.30;99.90;;;;;;4972833;28;21013;-76
2023/09/28 06:32:34;;;;;;;11.77;10.43;;;17.30;99.90;;;;;;4992200;28;20530;-67
2023/09/28 06:35:01;;;;;;;15.80;9.53;;;17.40;99.90;;;;;;4992335;28;20920;-69
2023/09/28 06:37:27;;;;;;;12.13;9.67;;;17.40;99.90;;;;;;4959389;28;20181;-68
2023/09/28 06:39:53;;;;;;;11.57;10.30;;;17.40;99.90;;;;;;4989635;28;20996;-68
2023/09/28 06:42:19;;;;;;;14.00;10.10;;;17.50;99.90;;;;;;4956537;28;20460;-67
2023/09/28 06:44:45;;;;;;;11.40;10.23;;;17.40;99.90;;;;;;4963711;28;20463;-69
2023/09/28 06:47:12;;;;;;;13.50;10.33;;;17.40;99.90;;;;;;4990513;28;20948;-68
2023/09/28 06:49:37;;;;;;;12.30;11.10;;;17.50;99.90;;;;;;4975059;28;20177;-67
2023/09/28 06:52:05;;;;;;;11.70;10.50;;;17.50;99.90;;;;;;4976484;28;20845;-68
2023/09/28 06:54:32;;;;;;;10.13;9.30;;;17.60;99.90;;;;;;4975416;28;20483;-68
2023/09/28 06:57:03;;;;;;;10.73;9.63;;;17.60;99.90;;;;;;4960235;28;21140;-67
2023/09/28 06:59:28;;;;;;;11.00;9.77;;;17.60;99.90;;;;;;4993132;28;20432;-68
2023/09/28 07:01:55;;;;;;;9.30;8.43;;;17.60;99.90;;;;;;4959913;28;20447;-67
2023/09/28 07:04:22;;;;;;;14.80;10.47;;;17.70;99.90;;;;;;4976891;28;20216;-67
2023/09/28 07:06:57;;;;;;;11.13;9.07;;;17.70;99.90;;;;;;4974397;28;20464;-72
2023/09/28 07:09:26;;;;;;;14.67;9.97;;;17.80;99.90;;;;;;4956664;28;20405;-69
2023/09/28 07:11:53;;;;;;;12.57;9.10;;;17.80;99.90;;;;;;4940951;28;20433;-68
2023/09/28 07:14:19;;;;;;;11.47;8.93;;;17.80;99.90;;;;;;4975085;28;20495;-68
2023/09/28 07:16:46;;;;;;;10.80;9.30;;;17.90;99.90;;;;;;4940291;28;20181;-68
2023/09/28 07:19:12;;;;;;;11.67;10.37;;;17.90;99.90;;;;;;4957522;28;20936;-68
2023/09/28 07:21:38;;;;;;;11.33;10.13;;;17.90;96.40;;;;;;4975536;28;20426;-69
2023/09/28 07:24:05;;;;;;;11.03;9.87;;;17.90;94.90;;;;;;4976316;28;20456;-68
2023/09/28 07:26:32;;;;;;;13.67;9.20;;;17.90;94.90;;;;;;4975157;28;20439;-68
2023/09/28 07:29:01;;;;;;;14.47;10.23;;;18.00;95.00;;;;;;4976569;28;20416;-67
2023/09/28 07:31:27;;;;;;;11.33;8.77;;;18.00;95.00;;;;;;4991824;28;20456;-69
2023/09/28 07:33:54;;;;;;;11.80;10.00;;;18.00;95.00;;;;;;4975510;28;20814;-67
2023/09/28 07:36:22;;;;;;;9.60;8.80;;;18.00;95.00;;;;;;4975695;28;20443;-68
2023/09/28 07:38:50;;;;;;;11.07;10.07;;;18.00;95.00;;;;;;4975172;28;20558;-67
2023/09/28 07:41:17;;;;;;;11.77;9.37;;;18.10;95.00;;;;;;4975411;28;20431;-68
2023/09/28 07:43:45;;;;;;;10.67;9.60;;;18.00;95.00;;;;;;4976245;28;20518;-69
2023/09/28 07:46:13;;;;;;;10.73;9.37;;;18.00;94.90;;;;;;4992161;28;20428;-67
2023/09/28 07:48:40;;;;;;;11.33;9.93;;;18.00;95.00;;;;;;4956606;28;20451;-67
2023/09/28 07:51:07;;;;;;;10.97;9.90;;;18.00;95.00;;;;;;4956036;28;20948;-69
2023/09/28 07:53:35;;;;;;;15.00;9.63;;;18.10;95.00;;;;;;4960302;28;20429;-68
2023/09/28 07:56:06;;;;;;;12.30;9.50;;;18.10;95.00;;;;;;4955688;28;20971;-67
2023/09/28 07:58:32;;;;;;;10.50;9.40;;;18.10;95.00;;;;;;4978710;28;20450;-68
2023/09/28 08:00:58;;;;;;;11.20;10.00;;;18.10;95.00;;;;;;4995601;28;20459;-67
2023/09/28 08:03:26;;;;;;;10.87;9.03;;;18.10;95.00;;;;;;4979327;28;20604;-68
2023/09/28 08:05:54;;;;;;;10.33;8.80;;;18.10;95.00;;;;;;4997192;28;20888;-70
2023/09/28 08:08:20;;;;;;;11.10;8.97;;;18.20;95.10;;;;;;4979376;28;20439;-67
2023/09/28 08:10:47;;;;;;;10.80;9.70;;;18.30;95.10;;;;;;4996325;28;20424;-67
2023/09/28 08:13:15;;;;;;;11.87;9.47;;;18.40;95.20;;;;;;4995928;28;20184;-67
2023/09/28 08:15:43;;;;;;;9.90;8.87;;;18.50;95.10;;;;;;4970961;28;20444;-68
2023/09/28 08:18:10;;;;;;;9.73;8.83;;;18.60;88.80;;;;;;4978751;28;20442;-68
2023/09/28 08:20:39;;;;;;;10.10;9.10;;;18.70;84.50;;;;;;4963083;28;20470;-67
2023/09/28 08:23:06;;;;;;;12.10;10.10;;;18.80;83.50;;;;;;4979665;28;20455;-68
2023/09/28 08:25:34;;;;;;;10.07;9.10;;;18.90;74.20;;;;;;4980127;28;20404;-68
2023/09/28 08:28:03;;;;;;;10.03;9.23;;;19.10;72.90;;;;;;4979442;28;20445;-68
2023/09/28 08:30:29;;;;;;;10.80;8.73;;;19.20;67.60;;;;;;4993176;28;20485;-69
2023/09/28 08:32:55;;;;;;;12.50;9.27;;;19.40;58.50;;;;;;4959647;28;20445;-68
2023/09/28 08:35:20;;;;;;;10.90;8.33;;;19.50;58.20;;;;;;4970820;28;20838;-69
2023/09/28 08:37:48;;;;;;;9.23;8.43;;;19.60;48.60;;;;;;4977748;28;20487;-68
2023/09/28 08:40:14;;;;;;;9.03;8.13;;;19.70;33.90;;;;;;4978363;28;20272;-69
2023/09/28 08:42:43;;;;;;;11.57;9.23;;;19.90;30.70;;;;;;4978017;28;21008;-66
2023/09/28 08:45:12;;;;;;;9.77;8.97;;;20.00;25.60;;;;;;4995884;28;20467;-68
2023/09/28 08:47:47;;;;;;;10.40;8.10;;;20.20;19.60;;;;;;4993578;28;20511;-66
2023/09/28 08:50:19;;;;;;;8.90;8.00;;;20.30;7.10;;;;;;4994687;28;20441;-68
2023/09/28 08:52:45;;;;;;;9.70;8.77;;;20.40;1.00;;;;;;4994870;28;20967;-69
2023/09/28 08:55:12;;;;;;;8.30;7.40;;;20.50;1.00;;;;;;4976978;28;21068;-66
2023/09/28 08:57:40;;;;;;;11.57;8.20;;;20.60;1.00;;;;;;4994577;28;20432;-66
2023/09/28 09:00:13;;;;;;;8.77;7.60;;;20.70;1.00;;;;;;4994164;28;20796;-67
2023/09/28 09:02:43;;;;;;;10.00;8.10;;;20.70;1.00;;;;;;4996395;28;20428;-66
2023/09/28 09:05:13;;;;;;;7.93;7.23;;;20.90;1.00;;;;;;4994715;28;20824;-66
2023/09/28 09:07:42;;;;;;;7.03;6.37;;;21.10;1.00;;;;;;4996526;28;20439;-68
2023/09/28 09:10:12;;;;;;;7.53;6.80;;;21.30;1.00;;;;;;4994123;28;20475;-66
2023/09/28 09:12:39;;;;;;;10.57;6.83;;;21.40;1.00;;;;;;4992562;28;20797;-67
2023/09/28 09:15:05;;;;;;;9.07;7.30;;;21.60;1.00;;;;;;4995254;28;20423;-69
2023/09/28 09:17:37;;;;;;;8.90;6.93;;;21.70;1.00;;;;;;4978918;28;20426;-67
2023/09/28 09:20:08;;;;;;;12.80;7.57;;;21.80;1.00;;;;;;4992577;28;20510;-67
2023/09/28 09:22:36;;;;;;;5.63;5.07;;;21.80;1.00;;;;;;4979450;28;20793;-70
2023/09/28 09:25:03;;;;;;;15.13;5.93;;;22.00;1.00;;;;;;4996289;28;20458;-70
2023/09/28 09:27:31;;;;;;;5.93;5.43;;;22.20;1.00;;;;;;4977693;28;20828;-67
2023/09/28 09:29:58;;;;;;;8.40;4.73;;;22.40;1.00;;;;;;4961025;28;20444;-70
2023/09/28 09:32:27;;;;;;;9.67;4.43;;;22.60;1.00;;;;;;4978019;28;20502;-68
2023/09/28 09:34:54;;;;;;;6.90;4.23;;;22.60;1.00;;;;;;4977814;28;20466;-68
2023/09/28 09:37:20;;;;;;;6.03;4.60;;;22.70;1.00;;;;;;4994345;28;20463;-68
2023/09/28 09:39:46;;;;;;;4.83;4.13;;;22.80;1.00;;;;;;4995050;28;20443;-66
2023/09/28 09:42:12;;;;;;;5.10;4.70;;;22.90;1.00;;;;;;4992692;28;20716;-68
2023/09/28 09:44:40;;;;;;;11.13;5.40;;;22.90;1.00;;;;;;4992977;28;20456;-67
2023/09/28 09:47:05;;;;;;;5.60;4.47;;;22.90;1.00;;;;;;4995793;28;20419;-67
2023/09/28 09:49:33;;;;;;;6.00;4.70;;;23.00;1.00;;;;;;4994472;28;20404;-76
2023/09/28 09:52:02;;;;;;;8.80;4.60;;;23.20;1.00;;;;;;4994171;28;20196;-66
2023/09/28 09:54:31;;;;;;;5.43;4.87;;;23.20;1.00;;;;;;4977886;28;20436;-66
2023/09/28 09:56:59;;;;;;;5.90;4.27;;;23.30;1.00;;;;;;4993412;28;20483;-66
2023/09/28 09:59:28;;;;;;;4.73;3.90;;;23.40;1.00;;;;;;4994707;28;20413;-66
2023/09/28 10:01:55;;;;;;;17.50;5.10;;;23.70;1.00;;;;;;4976535;28;20468;-66
2023/09/28 10:04:23;;;;;;;9.67;5.77;;;23.90;1.00;;;;;;4993537;28;20507;-66
2023/09/28 10:06:51;;;;;;;10.37;5.40;;;23.90;1.00;;;;;;4976928;28;20531;-67
2023/09/28 10:09:21;;;;;;;11.20;5.80;;;24.00;1.00;;;;;;4995162;28;20401;-67
2023/09/28 10:11:49;;;;;;;13.63;5.30;;;24.00;1.00;;;;;;4994285;28;20511;-65
2023/09/28 10:14:18;;;;;;;6.90;4.80;;;24.00;1.00;;;;;;4991182;28;20467;-66
2023/09/28 10:16:44;;;;;;;8.10;4.70;;;24.20;1.00;;;;;;4989871;28;20498;-67
2023/09/28 10:19:15;;;;;;;8.60;4.70;;;24.20;1.00;;;;;;4978039;28;20396;-66
2023/09/28 10:21:41;;;;;;;7.73;6.50;;;24.50;1.00;;;;;;4993229;28;20550;-66
2023/09/28 10:24:14;;;;;;;5.80;5.30;;;24.70;1.00;;;;;;4993932;28;20599;-74
2023/09/28 10:27:07;;;;;;;6.20;5.60;;;24.70;1.00;;;;;;4975796;28;20473;-65
2023/09/28 10:29:34;;;;;;;6.70;6.10;;;24.60;1.00;;;;;;4974873;28;20818;-78
2023/09/28 10:32:02;;;;;;;7.97;6.13;;;24.80;1.00;;;;;;4992520;28;20451;-66
2023/09/28 10:34:27;;;;;;;6.00;5.40;;;25.10;1.00;;;;;;4973677;28;20443;-67
2023/09/28 10:37:13;;;;;;;5.43;4.90;;;25.30;1.00;;;;;;4977505;28;20415;-68
2023/09/28 10:39:43;;;;;;;7.77;5.57;;;25.20;1.00;;;;;;4993935;28;20183;-68
2023/09/28 10:42:14;;;;;;;8.50;5.10;;;25.10;1.00;;;;;;4975203;28;20443;-71
2023/09/28 10:44:56;;;;;;;5.43;4.93;;;25.00;1.00;;;;;;4976428;28;20539;-67
2023/09/28 10:47:23;;;;;;;5.53;4.10;;;25.00;1.00;;;;;;4992001;28;20497;-67
2023/09/28 10:49:58;;;;;;;7.07;4.40;;;25.10;1.00;;;;;;4991756;28;20559;-66
2023/09/28 10:52:24;;;;;;;5.30;4.47;;;25.20;1.00;;;;;;4991802;28;20443;-67
2023/09/28 10:54:49;;;;;;;4.67;4.20;;;25.10;1.00;;;;;;4994442;28;20407;-66
2023/09/28 10:57:15;;;;;;;7.57;4.03;;;24.80;1.00;;;;;;4959990;28;20201;-66
2023/09/28 10:59:41;;;;;;;6.97;4.50;;;24.50;1.00;;;;;;4993969;28;20184;-67
2023/09/28 11:02:08;;;;;;;5.00;4.60;;;23.90;1.00;;;;;;4991271;28;20196;-69
2023/09/28 11:04:39;;;;;;;4.80;4.30;;;23.60;1.00;;;;;;4992902;28;20220;-66
2023/09/28 11:07:08;;;;;;;6.73;4.27;;;23.20;1.00;;;;;;4976111;28;21011;-68
2023/09/28 11:09:34;;;;;;;4.97;4.30;;;23.20;1.00;;;;;;4975935;28;21003;-78
2023/09/28 11:12:05;;;;;;;6.63;3.83;;;23.40;1.00;;;;;;4992465;28;20456;-67
2023/09/28 11:14:32;;;;;;;4.70;4.30;;;23.50;1.00;;;;;;4993242;28;20176;-67
2023/09/28 11:16:58;;;;;;;11.27;4.67;;;23.40;1.00;;;;;;4992582;28;20475;-67
2023/09/28 11:19:24;;;;;;;4.50;4.10;;;23.00;1.00;;;;;;4976808;28;20412;-68
2023/09/28 11:21:50;;;;;;;7.43;5.03;;;22.80;1.00;;;;;;4975172;28;20521;-68
2023/09/28 11:24:16;;;;;;;6.33;4.53;;;22.80;1.00;;;;;;4993395;28;20218;-66
2023/09/28 11:26:42;;;;;;;7.20;4.27;;;22.60;1.00;;;;;;4974727;28;20836;-67
2023/09/28 11:29:09;;;;;;;6.30;4.20;;;22.60;1.00;;;;;;4993482;28;20553;-68
2023/09/28 11:31:35;;;;;;;7.93;4.57;;;22.60;1.00;;;;;;4990202;28;20452;-67
2023/09/28 11:34:05;;;;;;;5.30;3.87;;;22.60;1.00;;;;;;4994019;28;20419;-66
2023/09/28 11:36:33;;;;;;;9.37;4.23;;;22.70;1.00;;;;;;4989545;28;20684;-67
2023/09/28 11:39:00;;;;;;;13.73;5.27;;;22.70;1.00;;;;;;4987116;28;20432;-67
2023/09/28 11:41:26;;;;;;;5.40;3.93;;;22.70;1.00;;;;;;4974161;28;20980;-66
2023/09/28 11:43:56;;;;;;;15.23;4.80;;;22.60;1.00;;;;;;4990606;28;20460;-68
2023/09/28 11:46:33;;;;;;;11.73;5.27;;;22.60;1.00;;;;;;4992903;28;20499;-66
2023/09/28 11:49:04;;;;;;;16.97;4.37;;;22.60;1.00;;;;;;4973239;28;20431;-67
2023/09/28 11:51:31;;;;;;;12.13;4.17;;;22.60;1.00;;;;;;4991943;28;20456;-66
2023/09/28 11:53:57;;;;;;;7.67;3.80;;;22.50;1.00;;;;;;4993800;28;20761;-67
2023/09/28 11:56:23;;;;;;;7.87;4.20;;;22.60;1.00;;;;;;4993506;28;20931;-66
2023/09/28 11:58:49;;;;;;;8.97;3.30;;;22.80;1.00;;;;;;4991833;28;20481;-66
2023/09/28 12:01:15;;;;;;;10.50;4.03;;;23.00;1.00;;;;;;4990779;28;20688;-66
2023/09/28 12:03:41;;;;;;;7.90;3.07;;;23.10;1.00;;;;;;4993498;28;20451;-66
2023/09/28 12:06:06;;;;;;;11.10;3.30;;;23.30;1.00;;;;;;4992688;28;20189;-68
2023/09/28 12:08:33;;;;;;;7.80;3.60;;;23.30;1.00;;;;;;4990920;28;20181;-67
2023/09/28 12:10:59;;;;;;;4.80;3.27;;;23.20;1.00;;;;;;4990914;28;20201;-68
2023/09/28 12:13:26;;;;;;;10.00;4.13;;;23.30;1.00;;;;;;4992299;28;20443;-67
2023/09/28 12:15:54;;;;;;;13.60;4.50;;;23.40;1.00;;;;;;4989548;28;20440;-67
2023/09/28 12:18:21;;;;;;;9.53;3.27;;;23.60;1.00;;;;;;4993342;28;20498;-68
2023/09/28 12:20:47;;;;;;;13.13;3.80;;;23.80;1.00;;;;;;4989597;28;20547;-66
2023/09/28 12:23:15;;;;;;;8.33;3.10;;;23.70;1.00;;;;;;4954161;28;20441;-68
2023/09/28 12:25:41;;;;;;;9.43;3.43;;;23.80;1.00;;;;;;4984717;28;20451;-76
2023/09/28 12:28:08;;;;;;;9.90;3.33;;;23.80;1.00;;;;;;4993518;28;20412;-68
2023/09/28 12:30:33;;;;;;;9.60;3.00;;;23.80;1.00;;;;;;4974328;28;20642;-68
2023/09/28 12:33:02;;;;;;;14.23;3.40;;;23.80;1.00;;;;;;4993789;28;20389;-67
2023/09/28 12:35:28;;;;;;;8.17;3.20;;;24.10;1.00;;;;;;4991512;28;20530;-71
2023/09/28 12:37:54;;;;;;;10.23;4.10;;;24.40;1.00;;;;;;4956151;28;20436;-67
2023/09/28 12:40:20;;;;;;;10.30;3.37;;;25.00;1.00;;;;;;4978127;28;20769;-66
2023/09/28 12:42:47;;;;;;;10.17;3.20;;;25.30;1.00;;;;;;4962988;28;20959;-67